createdAt,value
2019-04-29T00:01:14.572Z,3.73
2019-04-29T00:03:42.985Z,4.00
2019-04-29T00:06:11.434Z,3.97
2019-04-29T00:08:40.448Z,3.90
2019-04-29T00:11:08.972Z,3.83
2019-04-29T00:13:37.413Z,3.60
2019-04-29T00:16:16.454Z,3.80
2019-04-29T00:18:46.536Z,4.00
2019-04-29T00:21:15.259Z,4.17
2019-04-29T00:23:43.710Z,4.57
2019-04-29T00:26:12.089Z,4.43
2019-04-29T00:28:40.461Z,3.93
2019-04-29T00:31:08.909Z,4.27
2019-04-29T00:33:37.284Z,4.30
2019-04-29T00:36:05.672Z,4.13
2019-04-29T00:38:35.726Z,4.27
2019-04-29T00:41:14.587Z,3.70
2019-04-29T00:43:50.073Z,4.67
2019-04-29T00:46:18.430Z,3.93
2019-04-29T00:48:46.807Z,3.67
2019-04-29T00:51:15.189Z,4.47
2019-04-29T00:53:44.145Z,4.60
2019-04-29T00:56:12.527Z,4.40
2019-04-29T00:58:40.900Z,4.27
2019-04-29T01:01:12.825Z,4.27
2019-04-29T01:03:41.415Z,4.60
2019-04-29T01:06:09.745Z,4.00
2019-04-29T01:08:38.119Z,3.73
2019-04-29T01:11:06.570Z,3.70
2019-04-29T01:13:34.977Z,3.83
2019-04-29T01:16:03.374Z,3.43
2019-04-29T01:18:31.769Z,4.03
2019-04-29T01:21:00.139Z,4.03
2019-04-29T01:23:28.543Z,3.67
2019-04-29T01:25:58.629Z,3.67
2019-04-29T01:28:28.652Z,4.30
2019-04-29T01:31:01.219Z,3.83
2019-04-29T01:33:29.599Z,4.70
2019-04-29T01:36:18.103Z,4.60
2019-04-29T01:38:48.793Z,4.60
2019-04-29T01:41:31.052Z,4.20
2019-04-29T01:44:00.297Z,4.50
2019-04-29T01:46:29.314Z,4.80
2019-04-29T01:48:57.856Z,4.30
2019-04-29T01:51:26.346Z,4.30
2019-04-29T01:53:54.726Z,4.13
2019-04-29T01:56:23.138Z,4.20
2019-04-29T01:58:51.547Z,4.63
2019-04-29T02:01:20.011Z,4.20
2019-04-29T02:03:48.457Z,4.03
2019-04-29T02:06:16.842Z,4.50
2019-04-29T02:08:45.319Z,4.37
2019-04-29T02:11:13.696Z,4.03
2019-04-29T02:13:42.077Z,3.80
2019-04-29T02:16:10.534Z,3.87
2019-04-29T02:18:38.915Z,4.60
2019-04-29T02:21:07.371Z,4.90
2019-04-29T02:23:37.396Z,4.20
2019-04-29T02:26:06.976Z,4.07
2019-04-29T02:28:35.381Z,4.23
2019-04-29T02:31:21.793Z,4.30
2019-04-29T02:33:50.250Z,4.43
2019-04-29T02:36:18.632Z,4.20
2019-04-29T02:39:04.623Z,4.40
2019-04-29T02:41:37.844Z,4.13
2019-04-29T02:44:07.870Z,5.00
2019-04-29T02:46:36.241Z,4.20
2019-04-29T02:49:04.627Z,4.37
2019-04-29T02:51:46.884Z,4.60
2019-04-29T02:54:15.297Z,4.47
2019-04-29T02:56:45.330Z,4.90
2019-04-29T02:59:15.361Z,4.30
2019-04-29T03:01:54.174Z,4.50
2019-04-29T03:04:24.198Z,4.47
2019-04-29T03:06:52.606Z,4.20
2019-04-29T03:09:20.981Z,4.10
2019-04-29T03:11:49.367Z,4.10
2019-04-29T03:14:17.822Z,4.87
2019-04-29T03:16:46.263Z,4.20
2019-04-29T03:19:16.450Z,4.30
2019-04-29T03:21:52.155Z,4.40
2019-04-29T03:24:20.557Z,4.37
2019-04-29T03:26:48.935Z,4.30
2019-04-29T03:29:23.008Z,4.23
2019-04-29T03:31:53.819Z,4.70
2019-04-29T03:34:22.426Z,4.30
2019-04-29T03:36:50.800Z,4.70
2019-04-29T03:39:19.204Z,4.43
2019-04-29T03:41:47.659Z,4.50
2019-04-29T03:44:16.034Z,4.03
2019-04-29T03:46:44.418Z,4.40
2019-04-29T03:49:12.862Z,5.10
2019-04-29T03:51:41.272Z,4.40
2019-04-29T03:54:10.876Z,4.07
2019-04-29T03:56:39.315Z,4.53
2019-04-29T03:59:07.738Z,4.13
2019-04-29T04:01:40.707Z,4.77
2019-04-29T04:04:16.549Z,4.30
2019-04-29T04:06:46.571Z,4.73
2019-04-29T04:09:19.045Z,4.40
2019-04-29T04:11:47.526Z,4.80
2019-04-29T04:14:15.912Z,4.63
2019-04-29T04:16:57.944Z,4.50
2019-04-29T04:19:28.041Z,4.80
2019-04-29T04:21:56.434Z,4.60
2019-04-29T04:24:24.811Z,4.47
2019-04-29T04:26:53.185Z,4.63
2019-04-29T04:29:21.564Z,4.40
2019-04-29T04:31:49.949Z,4.83
2019-04-29T04:34:18.337Z,4.50
2019-04-29T04:36:46.714Z,5.00
2019-04-29T04:39:15.095Z,5.17
2019-04-29T04:41:43.471Z,4.60
2019-04-29T04:44:11.851Z,4.23
2019-04-29T04:46:40.254Z,4.63
2019-04-29T04:49:08.642Z,4.47
2019-04-29T04:51:37.057Z,4.17
2019-04-29T04:54:05.446Z,4.70
2019-04-29T04:56:33.829Z,4.60
2019-04-29T04:59:02.251Z,4.83
2019-04-29T05:01:30.625Z,4.60
2019-04-29T05:03:59.027Z,4.47
2019-04-29T05:06:27.438Z,4.60
2019-04-29T05:08:55.895Z,4.50
2019-04-29T05:11:24.289Z,5.33
2019-04-29T05:13:52.671Z,4.75
2019-04-29T05:16:21.102Z,4.97
2019-04-29T05:18:49.458Z,5.47
2019-04-29T05:21:17.865Z,4.53
2019-04-29T05:23:46.242Z,5.23
2019-04-29T05:26:14.629Z,4.90
2019-04-29T05:28:43.008Z,5.20
2019-04-29T05:31:11.393Z,4.73
2019-04-29T05:33:39.776Z,4.90
2019-04-29T05:36:09.831Z,4.90
2019-04-29T05:38:45.816Z,4.70
2019-04-29T05:41:14.204Z,5.83
2019-04-29T05:43:46.692Z,5.67
2019-04-29T05:46:23.277Z,5.10
2019-04-29T05:48:51.922Z,4.83
2019-04-29T05:51:33.845Z,4.97
2019-04-29T05:54:03.875Z,5.07
2019-04-29T05:56:32.260Z,5.50
2019-04-29T05:59:00.646Z,5.17
2019-04-29T06:01:31.584Z,5.33
2019-04-29T06:04:00.238Z,5.40
2019-04-29T06:06:28.626Z,5.93
2019-04-29T06:08:57.007Z,5.43
2019-04-29T06:11:25.475Z,5.33
2019-04-29T06:13:53.883Z,6.20
2019-04-29T06:16:22.705Z,5.83
2019-04-29T06:18:59.757Z,6.03
2019-04-29T06:21:21.333Z,6.13
2019-04-29T06:23:49.733Z,6.20
2019-04-29T06:26:18.124Z,6.80
2019-04-29T06:28:46.514Z,6.83
2019-04-29T06:31:14.966Z,7.47
2019-04-29T06:33:43.353Z,7.27
2019-04-29T06:36:11.798Z,7.50
2019-04-29T06:38:40.487Z,7.50
2019-04-29T06:41:09.792Z,7.57
2019-04-29T06:43:39.147Z,8.03
2019-04-29T06:46:08.326Z,8.50
2019-04-29T06:48:36.740Z,7.83
2019-04-29T06:51:05.147Z,8.90
2019-04-29T06:53:33.533Z,8.63
2019-04-29T06:56:02.018Z,9.07
2019-04-29T06:58:32.633Z,8.77
2019-04-29T07:01:01.138Z,9.33
2019-04-29T07:03:30.651Z,8.53
2019-04-29T07:05:59.042Z,8.70
2019-04-29T07:08:27.463Z,8.70
2019-04-29T07:11:00.709Z,8.27
2019-04-29T07:13:25.972Z,8.87
2019-04-29T07:15:54.401Z,9.43
2019-04-29T07:18:22.813Z,9.43
2019-04-29T07:20:51.203Z,8.60
2019-04-29T07:23:19.593Z,9.60
2019-04-29T07:25:48.052Z,9.23
2019-04-29T07:28:18.379Z,9.87
2019-04-29T07:31:00.948Z,9.93
2019-04-29T07:33:22.060Z,9.70
2019-04-29T07:35:47.889Z,9.93
2019-04-29T07:38:16.939Z,10.40
2019-04-29T07:40:45.331Z,8.73
2019-04-29T07:43:13.741Z,9.70
2019-04-29T07:45:46.823Z,9.40
2019-04-29T07:48:15.221Z,8.90
2019-04-29T07:50:43.701Z,9.13
2019-04-29T07:53:12.082Z,8.70
2019-04-29T07:55:40.488Z,8.13
2019-04-29T07:58:08.871Z,8.47
2019-04-29T08:00:38.130Z,8.40
2019-04-29T08:03:08.561Z,9.10
2019-04-29T08:05:37.288Z,8.90
2019-04-29T08:08:05.770Z,8.70
2019-04-29T08:10:34.322Z,8.47
2019-04-29T08:13:03.380Z,8.20
2019-04-29T08:15:32.234Z,8.87
2019-04-29T08:18:06.657Z,9.07
2019-04-29T08:20:30.796Z,8.93
2019-04-29T08:23:02.453Z,9.10
2019-04-29T08:25:29.314Z,8.97
2019-04-29T08:27:57.698Z,8.10
2019-04-29T08:30:26.079Z,8.37
2019-04-29T08:32:54.466Z,8.47
2019-04-29T08:35:22.886Z,7.87
2019-04-29T08:37:51.269Z,9.18
2019-04-29T08:40:19.799Z,8.90
2019-04-29T08:42:58.945Z,7.93
2019-04-29T08:45:29.070Z,9.23
2019-04-29T08:47:58.785Z,7.60
2019-04-29T08:50:27.174Z,7.50
2019-04-29T08:52:55.588Z,8.60
2019-04-29T08:55:26.695Z,7.90
2019-04-29T08:57:54.085Z,7.70
2019-04-29T09:00:22.542Z,8.17
2019-04-29T09:02:50.974Z,7.67
2019-04-29T09:05:19.348Z,7.37
2019-04-29T09:07:47.810Z,7.10
2019-04-29T09:10:16.474Z,7.40
2019-04-29T09:12:44.853Z,6.83
2019-04-29T09:15:13.715Z,6.77
2019-04-29T09:17:42.140Z,6.70
2019-04-29T09:20:10.766Z,6.47
2019-04-29T09:22:40.976Z,7.00
2019-04-29T09:25:11.440Z,6.60
2019-04-29T09:27:44.932Z,7.20
2019-04-29T09:30:13.724Z,7.30
2019-04-29T09:32:42.120Z,7.07
2019-04-29T09:35:10.740Z,6.40
2019-04-29T09:37:39.144Z,6.93
2019-04-29T09:40:09.044Z,7.10
2019-04-29T09:42:39.078Z,6.23
2019-04-29T09:45:25.831Z,6.03
2019-04-29T09:47:54.314Z,6.17
2019-04-29T09:50:22.707Z,5.93
2019-04-29T09:52:51.095Z,6.40
2019-04-29T09:55:20.883Z,6.30
2019-04-29T09:57:49.258Z,6.13
2019-04-29T10:00:31.770Z,6.53
2019-04-29T10:03:05.161Z,6.53
2019-04-29T10:05:38.349Z,6.25
2019-04-29T10:08:06.813Z,6.00
2019-04-29T10:10:37.252Z,5.87
2019-04-29T10:13:06.194Z,6.30
2019-04-29T10:15:36.212Z,6.20
2019-04-29T10:18:15.103Z,6.47
2019-04-29T10:20:45.122Z,6.20
2019-04-29T10:23:13.565Z,6.63
2019-04-29T10:25:42.019Z,6.00
2019-04-29T10:28:10.484Z,6.60
2019-04-29T10:30:38.980Z,6.30
2019-04-29T10:33:07.400Z,6.30
2019-04-29T10:35:35.928Z,6.00
2019-04-29T10:38:05.711Z,6.63
2019-04-29T10:40:52.143Z,5.93
2019-04-29T10:43:24.957Z,5.80
2019-04-29T10:46:01.187Z,5.40
2019-04-29T10:48:43.549Z,5.97
2019-04-29T10:51:13.522Z,6.73
2019-04-29T10:53:41.928Z,6.07
2019-04-29T10:56:10.314Z,6.17
2019-04-29T10:58:38.876Z,6.60
2019-04-29T11:01:29.119Z,6.03
2019-04-29T11:04:00.688Z,6.93
2019-04-29T11:06:31.397Z,6.33
2019-04-29T11:08:59.504Z,7.03
2019-04-29T11:11:29.670Z,6.13
2019-04-29T11:14:01.509Z,5.83
2019-04-29T11:16:45.338Z,5.47
2019-04-29T11:19:00.288Z,6.78
2019-04-29T11:21:29.526Z,6.53
2019-04-29T11:24:03.467Z,7.27
2019-04-29T11:26:33.494Z,7.30
2019-04-29T11:29:05.332Z,6.97
2019-04-29T11:31:33.663Z,6.90
2019-04-29T11:34:21.565Z,6.60
2019-04-29T11:36:49.952Z,8.77
2019-04-29T11:39:18.339Z,7.40
2019-04-29T11:41:49.915Z,6.90
2019-04-29T11:44:16.933Z,7.70
2019-04-29T11:46:49.112Z,7.70
2019-04-29T11:49:17.485Z,7.47
2019-04-29T11:52:07.888Z,7.83
2019-04-29T11:54:18.462Z,8.40
2019-04-29T11:56:46.870Z,7.83
2019-04-29T11:59:19.467Z,8.27
2019-04-29T12:01:53.513Z,9.00
2019-04-29T12:04:28.647Z,9.03
2019-04-29T12:06:58.120Z,8.70
2019-04-29T12:09:30.601Z,8.73
2019-04-29T12:11:57.338Z,8.87
2019-04-29T12:14:27.361Z,8.57
2019-04-29T12:17:13.200Z,8.20
2019-04-29T12:19:43.290Z,8.70
2019-04-29T12:22:26.018Z,7.80
2019-04-29T12:24:41.774Z,7.00
2019-04-29T12:27:14.725Z,5.90
2019-04-29T12:29:42.100Z,6.43
2019-04-29T12:32:12.194Z,6.23
2019-04-29T12:34:51.247Z,5.87
2019-04-29T12:37:34.490Z,5.77
2019-04-29T12:40:04.690Z,7.75
2019-04-29T12:42:43.736Z,7.40
2019-04-29T12:45:19.977Z,7.97
2019-04-29T12:47:48.389Z,6.53
2019-04-29T12:50:17.539Z,6.90
2019-04-29T12:52:46.876Z,7.50
2019-04-29T12:55:20.302Z,6.40
2019-04-29T12:57:47.080Z,6.97
2019-04-29T13:00:17.174Z,7.07
2019-04-29T13:02:59.785Z,7.47
2019-04-29T13:05:27.476Z,7.57
2019-04-29T13:07:57.562Z,7.57
2019-04-29T13:10:27.823Z,6.30
2019-04-29T13:12:58.151Z,5.43
2019-04-29T13:15:48.552Z,5.20
2019-04-29T13:18:23.051Z,5.60
2019-04-29T13:20:50.591Z,6.03
2019-04-29T13:23:19.453Z,5.90
2019-04-29T13:25:46.500Z,5.40
2019-04-29T13:28:29.020Z,5.87
2019-04-29T13:30:45.381Z,6.27
2019-04-29T13:33:16.583Z,6.63
2019-04-29T13:35:48.339Z,6.07
2019-04-29T13:38:14.274Z,6.10
2019-04-29T13:40:42.683Z,7.10
2019-04-29T13:43:11.110Z,7.17
2019-04-29T13:45:41.117Z,7.10
2019-04-29T13:48:14.185Z,6.77
2019-04-29T13:50:44.251Z,6.30
2019-04-29T13:53:16.687Z,7.27
2019-04-29T13:55:48.252Z,7.40
2019-04-29T13:58:12.968Z,7.40
2019-04-29T14:00:45.885Z,6.90
2019-04-29T14:03:18.613Z,8.40
2019-04-29T14:05:46.999Z,8.23
2019-04-29T14:08:15.435Z,7.73
2019-04-29T14:10:46.774Z,8.27
2019-04-29T14:13:17.671Z,9.15
2019-04-29T14:15:44.078Z,7.70
2019-04-29T14:18:13.719Z,7.67
2019-04-29T14:20:42.163Z,8.13
2019-04-29T14:23:10.544Z,6.40
2019-04-29T14:25:39.004Z,7.33
2019-04-29T14:28:07.411Z,8.13
2019-04-29T14:30:38.989Z,5.83
2019-04-29T14:33:05.929Z,5.60
2019-04-29T14:35:38.532Z,5.03
2019-04-29T14:38:06.952Z,5.70
2019-04-29T14:40:39.138Z,6.07
2019-04-29T14:43:28.699Z,7.00
2019-04-29T14:45:54.945Z,6.73
2019-04-29T14:48:41.293Z,6.90
2019-04-29T14:50:57.933Z,7.80
2019-04-29T14:53:26.400Z,7.30
2019-04-29T14:55:54.778Z,8.10
2019-04-29T14:58:23.190Z,7.23
2019-04-29T15:00:53.256Z,8.60
2019-04-29T15:03:23.388Z,7.27
2019-04-29T15:05:51.962Z,7.57
2019-04-29T15:08:20.474Z,7.97
2019-04-29T15:10:50.581Z,7.73
2019-04-29T15:13:21.839Z,8.17
2019-04-29T15:16:03.727Z,7.80
2019-04-29T15:18:45.989Z,7.40
2019-04-29T15:21:12.116Z,5.90
2019-04-29T15:23:40.536Z,6.30
2019-04-29T15:26:08.925Z,6.23
2019-04-29T15:28:52.297Z,5.83
2019-04-29T15:31:23.523Z,6.53
2019-04-29T15:33:52.149Z,7.10
2019-04-29T15:36:20.537Z,6.57
2019-04-29T15:39:08.271Z,6.87
2019-04-29T15:41:19.198Z,7.40
2019-04-29T15:43:48.353Z,8.18
2019-04-29T15:46:16.958Z,7.23
2019-04-29T15:48:45.344Z,7.57
2019-04-29T15:51:14.776Z,7.67
2019-04-29T15:53:43.193Z,7.83
2019-04-29T15:56:27.610Z,8.37
2019-04-29T15:58:41.929Z,7.67
2019-04-29T16:01:16.931Z,7.50
2019-04-29T16:03:40.695Z,7.53
2019-04-29T16:06:21.119Z,7.10
2019-04-29T16:08:47.914Z,7.47
2019-04-29T16:11:34.726Z,7.80
2019-04-29T16:14:09.358Z,6.97
2019-04-29T16:16:34.009Z,7.50
2019-04-29T16:19:08.112Z,7.27
2019-04-29T16:24:24.327Z,8.27
2019-04-29T16:26:32.827Z,7.47
2019-04-29T16:29:01.205Z,7.27
2019-04-29T16:31:29.654Z,7.50
2019-04-29T16:33:58.035Z,8.07
2019-04-29T16:36:26.489Z,7.77
2019-04-29T16:38:54.875Z,8.33
2019-04-29T16:41:41.197Z,8.17
2019-04-29T16:44:33.992Z,11.70
2019-04-29T16:46:41.331Z,8.40
2019-04-29T16:49:10.013Z,8.93
2019-04-29T16:51:38.425Z,10.08
2019-04-29T16:54:06.857Z,9.00
2019-04-29T16:56:35.240Z,7.90
2019-04-29T16:59:09.115Z,8.33
2019-04-29T17:01:33.729Z,8.30
2019-04-29T17:04:05.324Z,8.70
2019-04-29T17:06:36.123Z,7.13
2019-04-29T17:09:05.451Z,8.37
2019-04-29T17:11:41.840Z,7.90
2019-04-29T17:14:12.614Z,7.90
2019-04-29T17:16:40.421Z,7.83
2019-04-29T17:19:08.790Z,8.30
2019-04-29T17:21:37.242Z,8.23
2019-04-29T17:24:05.623Z,8.53
2019-04-29T17:26:41.143Z,9.27
2019-04-29T17:29:38.843Z,8.67
2019-04-29T17:32:16.249Z,8.67
2019-04-29T17:34:58.824Z,9.90
2019-04-29T17:37:17.058Z,10.67
2019-04-29T17:39:45.486Z,9.83
2019-04-29T17:42:13.875Z,11.33
2019-04-29T17:44:44.161Z,11.87
2019-04-29T17:47:30.449Z,12.83
2019-04-29T17:50:01.982Z,12.47
2019-04-29T17:52:30.688Z,13.87
2019-04-29T17:55:15.974Z,12.90
2019-04-29T17:57:51.762Z,11.67
2019-04-29T18:00:43.770Z,11.73
2019-04-29T18:03:17.817Z,11.77
2019-04-29T18:06:05.313Z,13.37
2019-04-29T18:08:34.987Z,13.33
2019-04-29T18:11:07.961Z,12.77
2019-04-29T18:13:35.284Z,12.43
2019-04-29T18:16:11.573Z,12.50
2019-04-29T18:18:57.451Z,11.23
2019-04-29T18:21:37.270Z,11.50
2019-04-29T18:24:15.230Z,10.47
2019-04-29T18:26:49.592Z,10.23
2019-04-29T18:29:18.126Z,11.53
2019-04-29T18:31:46.676Z,10.30
2019-04-29T18:34:15.380Z,9.27
2019-04-29T18:36:43.757Z,10.07
2019-04-29T18:39:15.897Z,9.43
2019-04-29T18:41:44.799Z,8.93
2019-04-29T18:44:19.187Z,8.37
2019-04-29T18:46:52.694Z,8.93
2019-04-29T18:49:15.861Z,8.57
2019-04-29T18:51:45.583Z,9.40
2019-04-29T18:54:13.958Z,8.57
2019-04-29T18:56:42.366Z,8.97
2019-04-29T18:59:10.744Z,9.10
2019-04-29T19:01:39.158Z,9.70
2019-04-29T19:04:18.608Z,9.37
2019-04-29T19:06:45.473Z,9.50
2019-04-29T19:09:20.124Z,10.43
2019-04-29T19:11:46.275Z,10.33
2019-04-29T19:14:25.547Z,11.20
2019-04-29T19:16:52.697Z,10.77
2019-04-29T19:19:21.843Z,11.30
2019-04-29T19:21:50.302Z,10.97
2019-04-29T19:24:18.700Z,11.40
2019-04-29T19:26:47.084Z,11.33
2019-04-29T19:29:15.672Z,10.83
2019-04-29T19:31:48.754Z,11.83
2019-04-29T19:34:18.535Z,11.78
2019-04-29T19:36:45.181Z,10.47
2019-04-29T19:39:16.982Z,11.37
2019-04-29T19:41:45.456Z,11.87
2019-04-29T19:44:15.546Z,12.60
2019-04-29T19:46:49.923Z,15.63
2019-04-29T19:49:18.313Z,13.57
2019-04-29T19:51:47.581Z,14.57
2019-04-29T19:54:16.909Z,14.03
2019-04-29T19:56:46.134Z,12.47
2019-04-29T19:59:16.996Z,13.23
2019-04-29T20:01:48.825Z,12.40
2019-04-29T20:04:23.290Z,11.43
2019-04-29T20:06:56.026Z,12.73
2019-04-29T20:09:23.859Z,12.63
2019-04-29T20:12:00.198Z,13.17
2019-04-29T20:14:33.485Z,12.63
2019-04-29T20:17:18.598Z,13.20
2019-04-29T20:19:55.493Z,13.27
2019-04-29T20:22:19.372Z,15.13
2019-04-29T20:24:50.594Z,13.70
2019-04-29T20:27:17.916Z,12.07
2019-04-29T20:29:46.602Z,13.10
2019-04-29T20:32:16.585Z,13.13
2019-04-29T20:34:46.076Z,13.80
2019-04-29T20:37:16.201Z,11.97
2019-04-29T20:39:45.680Z,12.73
2019-04-29T20:42:15.877Z,12.10
2019-04-29T20:44:45.744Z,12.17
2019-04-29T20:47:22.263Z,11.23
2019-04-29T20:50:09.029Z,12.73
2019-04-29T20:52:37.358Z,12.45
2019-04-29T20:55:09.331Z,13.17
2019-04-29T20:57:37.798Z,12.83
2019-04-29T21:00:07.195Z,12.20
2019-04-29T21:02:37.418Z,12.17
2019-04-29T21:05:09.683Z,11.87
2019-04-29T21:07:36.870Z,10.70
2019-04-29T21:10:08.577Z,11.67
2019-04-29T21:12:41.361Z,11.67
2019-04-29T21:15:17.241Z,12.23
2019-04-29T21:17:45.975Z,10.57
2019-04-29T21:20:14.552Z,12.20
2019-04-29T21:22:42.937Z,11.90
2019-04-29T21:25:11.539Z,11.47
2019-04-29T21:27:39.969Z,11.47
2019-04-29T21:30:08.852Z,12.77
2019-04-29T21:32:38.942Z,12.47
2019-04-29T21:35:10.162Z,12.37
2019-04-29T21:37:46.716Z,11.40
2019-04-29T21:40:14.755Z,12.47
2019-04-29T21:42:47.391Z,12.47
2019-04-29T21:45:17.456Z,11.33
2019-04-29T21:47:53.056Z,12.47
2019-04-29T21:50:17.822Z,12.63
2019-04-29T21:52:46.849Z,12.10
2019-04-29T21:55:16.110Z,13.67
2019-04-29T21:57:44.652Z,12.87
2019-04-29T22:00:15.649Z,13.30
2019-04-29T22:02:46.685Z,13.30
2019-04-29T22:05:18.236Z,13.67
2019-04-29T22:07:47.382Z,13.20
2019-04-29T22:10:19.949Z,13.43
2019-04-29T22:12:45.958Z,13.00
2019-04-29T22:15:16.348Z,15.58
2019-04-29T22:17:56.152Z,13.77
2019-04-29T22:20:15.908Z,12.50
2019-04-29T22:22:45.580Z,12.03
2019-04-29T22:25:15.715Z,12.20
2019-04-29T22:27:45.091Z,13.43
2019-04-29T22:30:18.370Z,12.80
2019-04-29T22:32:47.093Z,12.40
2019-04-29T22:35:16.536Z,13.33
2019-04-29T22:37:45.392Z,13.10
2019-04-29T22:40:17.008Z,13.07
2019-04-29T22:42:48.631Z,13.80
2019-04-29T22:45:16.186Z,13.20
2019-04-29T22:47:44.605Z,14.10
2019-04-29T22:50:13.096Z,13.90
2019-04-29T22:52:41.495Z,14.87
2019-04-29T22:55:10.157Z,14.60
2019-04-29T22:57:38.579Z,14.40
2019-04-29T23:00:08.325Z,14.03
2019-04-29T23:02:36.751Z,14.03
2019-04-29T23:05:05.848Z,13.40
2019-04-29T23:07:35.230Z,12.93
2019-04-29T23:10:06.273Z,13.13
2019-04-29T23:12:35.067Z,13.30
2019-04-29T23:15:05.742Z,14.13
2019-04-29T23:17:35.456Z,13.67
2019-04-29T23:20:10.785Z,12.63
2019-04-29T23:22:40.873Z,13.23
2019-04-29T23:25:11.050Z,13.50
2019-04-29T23:27:39.506Z,12.73
2019-04-29T23:30:08.832Z,12.83
2019-04-29T23:32:39.530Z,13.57
2019-04-29T23:35:09.646Z,12.90
2019-04-29T23:37:37.820Z,12.47
2019-04-29T23:40:07.296Z,12.90
2019-04-29T23:42:35.703Z,13.47
2019-04-29T23:45:05.462Z,12.73
2019-04-29T23:47:35.591Z,12.27
2019-04-29T23:50:04.895Z,14.07
2019-04-29T23:52:33.297Z,13.87
2019-04-29T23:55:01.691Z,13.40
2019-04-29T23:57:31.789Z,12.80
